createdAt,value
2022-10-28T00:02:22.528Z,14.80
2022-10-28T00:04:54.846Z,14.60
2022-10-28T00:07:29.063Z,14.60
2022-10-28T00:10:01.569Z,14.60
2022-10-28T00:12:31.358Z,14.50
2022-10-28T00:15:01.294Z,14.50
2022-10-28T00:17:34.689Z,14.50
2022-10-28T00:20:03.976Z,14.50
2022-10-28T00:22:36.875Z,14.40
2022-10-28T00:25:08.615Z,14.40
2022-10-28T00:27:36.656Z,14.40
2022-10-28T00:30:05.921Z,14.40
2022-10-28T00:32:35.243Z,14.40
2022-10-28T00:35:03.489Z,14.40
2022-10-28T00:37:31.653Z,14.40
2022-10-28T00:39:59.857Z,14.40
2022-10-28T00:42:29.205Z,14.40
2022-10-28T00:45:04.565Z,14.40
2022-10-28T00:47:56.341Z,14.40
2022-10-28T00:50:39.987Z,14.60
2022-10-28T00:53:10.935Z,14.50
2022-10-28T00:55:39.137Z,14.50
2022-10-28T00:58:08.751Z,14.50
2022-10-28T01:00:39.259Z,14.50
2022-10-28T01:03:13.061Z,14.50
2022-10-28T01:05:46.539Z,14.50
2022-10-28T01:08:21.036Z,14.50
2022-10-28T01:11:07.797Z,14.60
2022-10-28T01:13:44.447Z,14.50
2022-10-28T01:16:23.825Z,14.50
2022-10-28T01:19:07.248Z,14.40
2022-10-28T01:22:04.860Z,14.40
2022-10-28T01:24:54.542Z,14.40
2022-10-28T01:28:04.316Z,14.40
2022-10-28T01:30:43.436Z,14.40
2022-10-28T01:33:21.487Z,14.40
2022-10-28T01:35:54.957Z,14.30
2022-10-28T01:38:31.751Z,14.20
2022-10-28T01:41:09.717Z,14.20
2022-10-28T01:43:47.055Z,14.10
2022-10-28T01:46:18.565Z,14.10
2022-10-28T01:48:52.470Z,14.10
2022-10-28T01:51:25.471Z,14.00
2022-10-28T01:53:56.916Z,14.00
2022-10-28T01:56:28.908Z,14.00
2022-10-28T01:59:01.145Z,14.10
2022-10-28T02:01:42.010Z,14.00
2022-10-28T02:04:23.401Z,14.10
2022-10-28T02:07:01.130Z,14.10
2022-10-28T02:09:51.223Z,14.00
2022-10-28T02:12:26.655Z,14.10
2022-10-28T02:15:19.359Z,14.10
2022-10-28T02:18:21.847Z,14.10
2022-10-28T02:20:57.048Z,14.10
2022-10-28T02:23:40.270Z,14.20
2022-10-28T02:26:16.597Z,14.10
2022-10-28T02:28:51.583Z,14.10
2022-10-28T02:31:25.941Z,14.20
2022-10-28T02:33:58.946Z,14.20
2022-10-28T02:36:30.927Z,14.20
2022-10-28T02:39:02.227Z,14.20
2022-10-28T02:41:40.900Z,14.20
2022-10-28T02:44:15.004Z,14.20
2022-10-28T02:46:49.903Z,14.20
2022-10-28T02:49:19.536Z,14.20
2022-10-28T02:51:55.858Z,14.20
2022-10-28T02:54:30.561Z,14.30
2022-10-28T02:57:04.079Z,14.30
2022-10-28T02:59:34.525Z,14.30
2022-10-28T03:02:04.646Z,14.30
2022-10-28T03:04:38.194Z,14.20
2022-10-28T03:07:10.318Z,14.40
2022-10-28T03:09:40.391Z,14.20
2022-10-28T03:12:11.115Z,14.20
2022-10-28T03:14:46.021Z,14.20
2022-10-28T03:17:15.861Z,14.30
2022-10-28T03:19:46.667Z,14.20
2022-10-28T03:22:26.048Z,14.20
2022-10-28T03:24:57.356Z,14.10
2022-10-28T03:27:26.010Z,14.10
2022-10-28T03:29:56.276Z,14.10
2022-10-28T03:32:26.220Z,14.10
2022-10-28T03:35:06.246Z,14.10
2022-10-28T03:37:38.056Z,14.00
2022-10-28T03:40:10.354Z,14.20
2022-10-28T03:42:41.215Z,14.00
2022-10-28T03:45:15.037Z,14.00
2022-10-28T03:47:43.114Z,14.00
2022-10-28T03:50:14.050Z,13.90
2022-10-28T03:52:46.332Z,13.90
2022-10-28T03:55:20.300Z,13.80
2022-10-28T03:57:49.586Z,13.90
2022-10-28T04:00:25.193Z,13.90
2022-10-28T04:03:01.633Z,13.90
2022-10-28T04:05:31.657Z,14.00
2022-10-28T04:08:01.151Z,13.80
2022-10-28T04:10:29.417Z,13.80
2022-10-28T04:13:11.484Z,14.00
2022-10-28T04:15:41.316Z,13.80
2022-10-28T04:18:09.695Z,13.80
2022-10-28T04:20:37.780Z,13.80
2022-10-28T04:23:10.229Z,13.80
2022-10-28T04:25:41.389Z,13.90
2022-10-28T04:28:12.308Z,13.80
2022-10-28T04:30:50.417Z,13.80
2022-10-28T04:33:25.657Z,13.80
2022-10-28T04:35:58.567Z,13.80
2022-10-28T04:38:28.002Z,13.80
2022-10-28T04:40:56.136Z,13.70
2022-10-28T04:43:24.317Z,13.80
2022-10-28T04:45:52.566Z,13.80
2022-10-28T04:48:20.978Z,13.70
2022-10-28T04:50:48.992Z,13.70
2022-10-28T04:53:19.517Z,13.80
2022-10-28T04:55:51.440Z,13.80
2022-10-28T04:58:19.550Z,13.80
2022-10-28T05:00:48.041Z,13.80
2022-10-28T05:03:16.375Z,13.80
2022-10-28T05:05:44.592Z,13.80
2022-10-28T05:08:12.740Z,13.80
2022-10-28T05:10:41.865Z,13.80
2022-10-28T05:13:11.499Z,13.30
2022-10-28T05:15:54.339Z,13.70
2022-10-28T05:18:22.354Z,13.70
2022-10-28T05:20:54.938Z,13.70
2022-10-28T05:23:25.892Z,13.70
2022-10-28T05:25:57.943Z,13.80
2022-10-28T05:28:27.549Z,13.80
2022-10-28T05:30:55.783Z,13.80
2022-10-28T05:33:23.978Z,13.80
2022-10-28T05:35:52.369Z,13.90
2022-10-28T05:38:20.563Z,13.90
2022-10-28T05:40:48.624Z,13.90
2022-10-28T05:43:16.627Z,13.90
2022-10-28T05:45:46.115Z,13.90
2022-10-28T05:48:14.089Z,13.90
2022-10-28T05:50:42.146Z,14.00
2022-10-28T05:53:10.300Z,14.00
2022-10-28T05:55:38.489Z,14.00
2022-10-28T05:58:06.522Z,14.00
2022-10-28T06:00:34.635Z,14.00
2022-10-28T06:03:10.186Z,14.00
2022-10-28T06:05:39.325Z,14.00
2022-10-28T06:08:08.025Z,14.10
2022-10-28T06:10:36.116Z,14.10
2022-10-28T06:13:02.627Z,14.10
2022-10-28T06:15:30.893Z,14.10
2022-10-28T06:17:58.994Z,14.10
2022-10-28T06:20:28.384Z,14.10
2022-10-28T06:22:56.552Z,14.10
2022-10-28T06:25:26.250Z,14.20
2022-10-28T06:27:55.681Z,14.30
2022-10-28T06:30:25.679Z,14.40
2022-10-28T06:32:56.170Z,14.50
2022-10-28T06:35:24.509Z,14.50
2022-10-28T06:38:03.739Z,14.40
2022-10-28T06:40:34.348Z,14.30
2022-10-28T06:43:04.669Z,14.30
2022-10-28T06:45:34.103Z,14.30
2022-10-28T06:48:05.477Z,14.30
2022-10-28T06:50:35.741Z,14.20
2022-10-28T06:53:05.386Z,14.20
2022-10-28T06:55:33.526Z,14.30
2022-10-28T06:58:02.523Z,14.30
2022-10-28T07:02:59.698Z,14.30
2022-10-28T07:05:28.870Z,14.30
2022-10-28T07:07:57.124Z,14.40
2022-10-28T07:10:26.918Z,14.40
2022-10-28T07:12:55.231Z,14.40
2022-10-28T07:15:24.022Z,14.50
2022-10-28T07:17:55.201Z,14.60
2022-10-28T07:20:25.014Z,14.70
2022-10-28T07:22:58.057Z,14.80
2022-10-28T07:25:27.795Z,14.90
2022-10-28T07:27:57.634Z,14.90
2022-10-28T07:30:25.969Z,15.00
2022-10-28T07:32:54.475Z,15.00
2022-10-28T07:35:22.780Z,14.80
2022-10-28T07:37:50.900Z,14.50
2022-10-28T07:40:19.438Z,14.40
2022-10-28T07:42:48.824Z,14.40
2022-10-28T07:45:17.417Z,14.40
2022-10-28T07:47:46.092Z,14.50
2022-10-28T07:50:14.450Z,14.70
2022-10-28T07:52:42.632Z,14.90
2022-10-28T07:55:12.165Z,15.20
2022-10-28T07:57:40.195Z,15.60
2022-10-28T08:00:10.642Z,15.90
2022-10-28T08:02:39.239Z,16.30
2022-10-28T08:05:08.153Z,16.90
2022-10-28T08:07:38.581Z,18.30
2022-10-28T08:10:08.682Z,19.90
2022-10-28T08:12:37.088Z,21.10
2022-10-28T08:15:05.881Z,22.10
2022-10-28T08:17:35.251Z,23.30
2022-10-28T08:20:03.246Z,24.60
2022-10-28T08:22:31.266Z,24.90
2022-10-28T08:24:59.320Z,23.60
2022-10-28T08:27:27.264Z,22.50
2022-10-28T08:29:55.261Z,21.90
2022-10-28T08:32:23.367Z,21.60
2022-10-28T08:34:52.763Z,21.90
2022-10-28T08:37:20.868Z,22.10
2022-10-28T08:39:48.977Z,21.60
2022-10-28T08:42:33.357Z,20.90
2022-10-28T08:45:22.619Z,20.40
2022-10-28T08:47:59.548Z,20.10
2022-10-28T08:50:31.917Z,20.10
2022-10-28T08:53:02.530Z,20.40
2022-10-28T08:55:34.756Z,20.50
2022-10-28T08:58:08.877Z,20.70
2022-10-28T09:00:38.334Z,21.20
2022-10-28T09:03:18.204Z,21.80
2022-10-28T09:05:50.156Z,22.20
2022-10-28T09:08:24.059Z,22.40
2022-10-28T09:11:04.584Z,23.20
2022-10-28T09:13:44.122Z,24.00
2022-10-28T09:16:22.727Z,24.20
2022-10-28T09:18:53.598Z,24.80
2022-10-28T09:21:32.916Z,25.40
2022-10-28T09:24:07.151Z,25.80
2022-10-28T09:26:45.957Z,26.00
2022-10-28T09:29:27.894Z,25.90
2022-10-28T09:32:02.344Z,26.00
2022-10-28T09:34:39.618Z,26.10
2022-10-28T09:37:16.303Z,26.50
2022-10-28T09:39:47.309Z,26.00
2022-10-28T09:42:19.328Z,25.80
2022-10-28T09:44:51.798Z,25.90
2022-10-28T09:47:23.989Z,26.30
2022-10-28T09:49:55.193Z,26.50
2022-10-28T09:52:29.550Z,26.40
2022-10-28T09:55:00.622Z,26.30
2022-10-28T09:57:32.862Z,26.50
2022-10-28T10:00:01.293Z,26.10
2022-10-28T10:02:31.894Z,25.70
2022-10-28T10:05:01.838Z,25.70
2022-10-28T10:07:36.750Z,25.70
2022-10-28T10:10:08.996Z,26.10
2022-10-28T10:12:37.721Z,26.00
2022-10-28T10:15:08.733Z,26.20
2022-10-28T10:17:41.197Z,26.40
2022-10-28T10:20:11.588Z,26.40
2022-10-28T10:22:42.292Z,26.50
2022-10-28T10:25:32.549Z,26.80
2022-10-28T10:28:02.962Z,26.40
2022-10-28T10:30:34.396Z,26.20
2022-10-28T10:33:03.503Z,26.30
2022-10-28T10:35:34.592Z,26.10
2022-10-28T10:38:07.453Z,25.50
2022-10-28T10:40:38.147Z,25.50
2022-10-28T10:43:22.097Z,25.70
2022-10-28T10:46:00.085Z,25.70
2022-10-28T10:48:29.152Z,25.90
2022-10-28T10:50:57.410Z,26.00
2022-10-28T10:53:28.386Z,26.00
2022-10-28T10:56:00.653Z,25.60
2022-10-28T10:58:31.794Z,25.00
2022-10-28T11:01:02.394Z,24.70
2022-10-28T11:03:34.760Z,24.40
2022-10-28T11:06:23.447Z,23.90
2022-10-28T11:08:57.648Z,23.50
2022-10-28T11:11:33.582Z,23.20
2022-10-28T11:14:08.429Z,23.20
2022-10-28T11:16:48.684Z,23.30
2022-10-28T11:19:22.084Z,23.60
2022-10-28T11:22:08.992Z,23.60
2022-10-28T11:25:02.316Z,23.70
2022-10-28T11:27:47.501Z,23.80
2022-10-28T11:30:20.266Z,23.90
2022-10-28T11:33:14.707Z,24.00
2022-10-28T11:36:00.533Z,24.20
2022-10-28T11:39:01.003Z,24.40
2022-10-28T11:41:41.434Z,24.60
2022-10-28T11:44:22.171Z,24.80
2022-10-28T11:47:03.955Z,24.90
2022-10-28T11:49:51.765Z,25.00
2022-10-28T11:52:32.836Z,24.80
2022-10-28T11:55:15.383Z,24.50
2022-10-28T11:57:54.479Z,24.60
2022-10-28T12:00:39.512Z,24.70
2022-10-28T12:03:36.999Z,24.50
2022-10-28T12:06:16.451Z,24.30
2022-10-28T12:08:59.533Z,24.20
2022-10-28T12:11:39.571Z,24.10
2022-10-28T12:14:21.472Z,24.00
2022-10-28T12:16:55.207Z,23.90
2022-10-28T12:19:27.980Z,23.80
2022-10-28T12:22:04.359Z,23.70
2022-10-28T12:24:36.788Z,23.60
2022-10-28T12:27:17.043Z,23.50
2022-10-28T12:29:50.911Z,23.40
2022-10-28T12:32:23.841Z,23.40
2022-10-28T12:34:59.069Z,23.40
2022-10-28T12:37:32.746Z,23.40
2022-10-28T12:40:08.881Z,23.40
2022-10-28T12:42:39.980Z,23.40
2022-10-28T12:45:16.009Z,23.30
2022-10-28T12:47:49.544Z,23.30
2022-10-28T12:50:25.033Z,23.20
2022-10-28T12:53:00.101Z,23.20
2022-10-28T12:55:36.740Z,23.20
2022-10-28T12:58:15.371Z,23.10
2022-10-28T13:00:50.266Z,23.10
2022-10-28T13:03:19.055Z,23.20
2022-10-28T13:05:54.142Z,23.20
2022-10-28T13:08:52.729Z,23.20
2022-10-28T13:11:48.811Z,23.20
2022-10-28T13:14:32.158Z,23.30
2022-10-28T13:17:16.935Z,23.20
2022-10-28T13:20:01.809Z,23.20
2022-10-28T13:22:44.979Z,23.20
2022-10-28T13:25:35.038Z,23.20
2022-10-28T13:28:04.416Z,23.20
2022-10-28T13:30:32.618Z,23.20
2022-10-28T13:33:08.456Z,23.30
2022-10-28T13:35:38.078Z,23.40
2022-10-28T13:38:12.254Z,23.40
2022-10-28T13:41:16.570Z,23.40
2022-10-28T13:44:22.996Z,23.50
2022-10-28T13:47:27.125Z,23.40
2022-10-28T13:50:37.151Z,23.30
2022-10-28T13:53:42.297Z,23.30
2022-10-28T13:56:21.764Z,23.30
2022-10-28T13:58:55.214Z,23.30
2022-10-28T14:02:32.542Z,23.20
2022-10-28T14:08:55.600Z,23.00
2022-10-28T14:11:54.896Z,22.80
2022-10-28T14:14:59.943Z,22.70
2022-10-28T14:17:42.439Z,22.30
2022-10-28T14:20:29.171Z,22.50
2022-10-28T14:22:57.304Z,22.40
2022-10-28T14:26:02.494Z,22.30
2022-10-28T14:28:55.827Z,22.20
2022-10-28T14:31:41.263Z,22.10
2022-10-28T14:34:49.229Z,22.10
2022-10-28T14:37:51.354Z,22.00
2022-10-28T14:40:33.932Z,22.00
2022-10-28T14:43:17.174Z,21.90
2022-10-28T14:46:00.989Z,21.90
2022-10-28T14:48:43.884Z,21.80
2022-10-28T14:51:16.543Z,21.70
2022-10-28T14:53:46.061Z,21.70
2022-10-28T14:58:55.451Z,21.60
2022-10-28T15:01:27.065Z,21.60
2022-10-28T15:03:59.096Z,21.50
2022-10-28T15:06:32.553Z,21.40
2022-10-28T15:09:06.340Z,21.40
2022-10-28T15:11:35.068Z,21.30
2022-10-28T15:14:17.156Z,21.30
2022-10-28T15:16:49.857Z,21.20
2022-10-28T15:19:20.611Z,21.20
2022-10-28T15:22:02.560Z,21.10
2022-10-28T15:24:30.577Z,21.10
2022-10-28T15:26:59.235Z,21.00
2022-10-28T15:29:28.721Z,21.00
2022-10-28T15:32:08.429Z,20.90
2022-10-28T15:34:36.604Z,20.90
2022-10-28T15:37:05.441Z,20.80
2022-10-28T15:39:33.842Z,20.80
2022-10-28T15:42:02.656Z,20.70
2022-10-28T15:44:37.807Z,20.70
2022-10-28T15:47:20.094Z,20.70
2022-10-28T15:50:00.400Z,20.60
2022-10-28T15:52:42.775Z,20.50
2022-10-28T15:56:02.319Z,20.40
2022-10-28T15:58:36.858Z,20.30
2022-10-28T16:01:10.355Z,20.30
2022-10-28T16:03:46.719Z,20.30
2022-10-28T16:06:26.175Z,20.30
2022-10-28T16:09:03.651Z,20.20
2022-10-28T16:11:33.383Z,20.20
2022-10-28T16:14:07.071Z,20.20
2022-10-28T16:16:36.675Z,20.20
2022-10-28T16:19:10.977Z,20.20
2022-10-28T16:21:39.963Z,20.20
2022-10-28T16:24:10.169Z,20.20
2022-10-28T16:26:38.176Z,20.20
2022-10-28T16:29:06.453Z,20.10
2022-10-28T16:31:37.908Z,20.00
2022-10-28T16:34:06.000Z,19.90
2022-10-28T16:36:34.059Z,19.90
2022-10-28T16:39:02.142Z,19.90
2022-10-28T16:41:30.301Z,19.90
2022-10-28T16:43:58.363Z,19.80
2022-10-28T16:46:26.553Z,19.80
2022-10-28T16:48:56.126Z,19.80
2022-10-28T16:51:24.207Z,19.80
2022-10-28T16:53:52.250Z,19.80
2022-10-28T16:56:20.259Z,19.70
2022-10-28T16:58:48.286Z,19.70
2022-10-28T17:01:20.915Z,19.70
2022-10-28T17:03:49.802Z,19.70
2022-10-28T17:06:19.298Z,19.70
2022-10-28T17:09:02.521Z,19.60
2022-10-28T17:13:59.704Z,19.70
2022-10-28T17:16:27.761Z,19.70
2022-10-28T17:18:55.898Z,19.70
2022-10-28T17:21:25.689Z,19.70
2022-10-28T17:23:53.883Z,19.60
2022-10-28T17:26:21.997Z,19.60
2022-10-28T17:28:53.236Z,19.60
2022-10-28T17:31:24.865Z,19.60
2022-10-28T17:33:56.975Z,19.60
2022-10-28T17:36:26.410Z,19.60
2022-10-28T17:38:55.443Z,19.50
2022-10-28T17:41:23.440Z,19.50
2022-10-28T17:43:54.098Z,19.50
2022-10-28T17:46:22.419Z,19.50
2022-10-28T17:48:50.605Z,19.50
2022-10-28T17:51:20.914Z,19.50
2022-10-28T17:53:54.363Z,19.40
2022-10-28T17:56:22.615Z,19.40
2022-10-28T17:58:53.974Z,19.40
2022-10-28T18:01:22.364Z,19.30
2022-10-28T18:03:50.841Z,19.30
2022-10-28T18:06:19.493Z,19.30
2022-10-28T18:08:48.002Z,19.30
2022-10-28T18:11:20.406Z,19.30
2022-10-28T18:13:52.785Z,19.30
2022-10-28T18:16:24.242Z,19.20
2022-10-28T18:18:53.819Z,19.20
2022-10-28T18:21:22.356Z,19.20
2022-10-28T18:23:53.166Z,19.10
2022-10-28T18:26:22.675Z,19.10
2022-10-28T18:28:50.659Z,19.10
2022-10-28T18:31:20.714Z,19.20
2022-10-28T18:33:49.189Z,19.20
2022-10-28T18:36:19.793Z,19.20
2022-10-28T18:38:48.822Z,19.20
2022-10-28T18:41:18.219Z,19.20
2022-10-28T18:43:48.255Z,19.20
2022-10-28T18:46:16.348Z,19.20
2022-10-28T18:48:44.427Z,19.20
2022-10-28T18:51:13.992Z,19.20
2022-10-28T18:53:43.625Z,19.10
2022-10-28T18:56:13.429Z,19.10
2022-10-28T18:58:41.965Z,19.10
2022-10-28T19:01:13.926Z,19.00
2022-10-28T19:03:42.309Z,19.00
2022-10-28T19:06:12.488Z,19.00
2022-10-28T19:08:41.358Z,18.90
2022-10-28T19:11:11.910Z,18.90
2022-10-28T19:13:42.191Z,18.90
2022-10-28T19:18:40.952Z,18.80
2022-10-28T19:21:12.517Z,18.80
2022-10-28T19:23:41.509Z,18.80
2022-10-28T19:26:11.249Z,18.80
2022-10-28T19:28:40.610Z,18.80
2022-10-28T19:31:12.293Z,18.80
2022-10-28T19:33:40.826Z,18.80
2022-10-28T19:36:12.983Z,18.80
2022-10-28T19:38:41.223Z,18.80
2022-10-28T19:41:11.640Z,18.80
2022-10-28T19:43:40.452Z,18.80
2022-10-28T19:46:13.327Z,18.80
2022-10-28T19:48:43.298Z,18.80
2022-10-28T19:51:14.886Z,18.80
2022-10-28T19:53:47.545Z,18.80
2022-10-28T19:56:19.081Z,18.90
2022-10-28T19:58:49.232Z,18.80
2022-10-28T20:01:19.301Z,18.80
2022-10-28T20:03:49.412Z,18.80
2022-10-28T20:06:19.141Z,18.80
2022-10-28T20:08:48.370Z,18.80
2022-10-28T20:11:24.785Z,18.80
2022-10-28T20:13:56.300Z,18.80
2022-10-28T20:16:26.729Z,18.60
2022-10-28T20:18:56.191Z,18.70
2022-10-28T20:21:26.133Z,18.80
2022-10-28T20:23:56.015Z,18.70
2022-10-28T20:26:25.709Z,18.60
2022-10-28T20:28:54.194Z,18.60
2022-10-28T20:31:23.822Z,18.60
2022-10-28T20:33:54.622Z,18.60
2022-10-28T20:36:24.721Z,18.60
2022-10-28T20:38:56.390Z,18.60
2022-10-28T20:41:24.930Z,18.60
2022-10-28T20:43:53.732Z,18.50
2022-10-28T20:46:22.645Z,18.50
2022-10-28T20:48:54.170Z,18.50
2022-10-28T20:51:23.159Z,18.50
2022-10-28T20:53:51.638Z,18.40
2022-10-28T20:56:20.924Z,18.40
2022-10-28T20:58:49.352Z,18.40
2022-10-28T21:01:19.414Z,18.30
2022-10-28T21:03:48.888Z,18.30
2022-10-28T21:06:18.816Z,18.20
2022-10-28T21:08:47.108Z,18.20
2022-10-28T21:11:17.057Z,18.20
2022-10-28T21:13:52.543Z,18.10
2022-10-28T21:16:21.692Z,18.00
2022-10-28T21:18:50.290Z,18.00
2022-10-28T21:21:20.744Z,18.00
2022-10-28T21:23:49.299Z,18.00
2022-10-28T21:26:17.559Z,17.90
2022-10-28T21:28:49.585Z,17.90
2022-10-28T21:31:30.011Z,17.90
2022-10-28T21:34:04.357Z,17.80
2022-10-28T21:36:42.528Z,17.70
2022-10-28T21:41:58.731Z,17.70
2022-10-28T21:44:26.864Z,17.70
2022-10-28T21:46:55.515Z,17.60
2022-10-28T21:49:23.830Z,17.60
2022-10-28T21:51:53.847Z,17.50
2022-10-28T21:54:22.000Z,17.40
2022-10-28T21:56:51.155Z,17.40
2022-10-28T21:59:19.420Z,17.30
2022-10-28T22:01:48.276Z,17.30
2022-10-28T22:04:16.513Z,17.30
2022-10-28T22:09:17.643Z,17.20
2022-10-28T22:11:45.898Z,17.20
2022-10-28T22:14:14.259Z,17.20
2022-10-28T22:16:47.558Z,17.10
2022-10-28T22:19:17.529Z,17.10
2022-10-28T22:21:46.338Z,17.10
2022-10-28T22:24:16.021Z,17.10
2022-10-28T22:26:44.175Z,17.10
2022-10-28T22:29:12.373Z,17.10
2022-10-28T22:31:40.514Z,17.00
2022-10-28T22:34:09.028Z,17.00
2022-10-28T22:36:37.095Z,17.00
2022-10-28T22:39:05.196Z,17.00
2022-10-28T22:41:35.007Z,17.00
2022-10-28T22:44:04.776Z,17.00
2022-10-28T22:46:36.791Z,17.00
2022-10-28T22:49:05.287Z,17.00
2022-10-28T22:51:33.631Z,17.00
2022-10-28T22:54:01.789Z,17.00
2022-10-28T22:56:29.870Z,17.00
2022-10-28T22:59:02.075Z,17.00
2022-10-28T23:01:30.638Z,17.00
2022-10-28T23:03:58.844Z,16.90
2022-10-28T23:06:28.396Z,16.90
2022-10-28T23:08:56.900Z,16.90
2022-10-28T23:11:25.225Z,16.90
2022-10-28T23:13:54.004Z,16.90
2022-10-28T23:16:25.112Z,17.00
2022-10-28T23:18:53.800Z,16.90
2022-10-28T23:21:23.827Z,16.90
2022-10-28T23:23:54.623Z,16.90
2022-10-28T23:26:23.272Z,16.90
2022-10-28T23:28:52.884Z,16.90
2022-10-28T23:31:21.905Z,16.90
2022-10-28T23:33:51.802Z,16.90
2022-10-28T23:36:19.897Z,16.80
2022-10-28T23:38:48.343Z,16.80
2022-10-28T23:41:18.980Z,16.70
2022-10-28T23:43:48.768Z,16.60
2022-10-28T23:46:17.248Z,16.50
2022-10-28T23:48:45.277Z,16.50
2022-10-28T23:51:15.126Z,16.50
2022-10-28T23:53:43.112Z,16.40
2022-10-28T23:56:11.293Z,16.30
2022-10-28T23:58:39.374Z,16.30
